Time;durP1;ratioP1;P1;durP2;ratioP2;P2;SDS_P1;SDS_P2;PMS_P1;PMS_P2;Temp;Humidity;BMP_temperature;BMP_pressure;BME280_temperature;BME280_humidity;BME280_pressure;Samples;Min_cycle;Max_cycle;Signal;HPM_P1;HPM_P2
2024/04/02 00:00:07;;;;;;;0.88;0.60;;;;;;;;;;5005680;28;58415;-77
2024/04/02 00:02:33;;;;;;;1.05;0.60;;;;;;;;;;5006698;28;59373;-77
2024/04/02 00:04:58;;;;;;;0.60;0.57;;;;;;;;;;5008144;28;59123;-77
2024/04/02 00:07:23;;;;;;;0.73;0.73;;;;;;;;;;5007096;28;58141;-77
2024/04/02 00:09:48;;;;;;;0.50;0.47;;;;;;;;;;5007659;28;60264;-77
2024/04/02 00:12:13;;;;;;;0.90;0.57;;;;;;;;;;5007692;28;58316;-77
2024/04/02 00:14:38;;;;;;;0.80;0.80;;;;;;;;;;5007003;28;60072;-76
2024/04/02 00:17:03;;;;;;;0.57;0.57;;;;;;;;;;5002406;28;58996;-77
2024/04/02 00:19:29;;;;;;;0.77;0.60;;;;;;;;;;5006402;28;58478;-77
2024/04/02 00:21:54;;;;;;;1.23;0.93;;;;;;;;;;5007788;28;59176;-77
2024/04/02 00:24:19;;;;;;;2.67;1.00;;;;;;;;;;5006399;28;59778;-77
2024/04/02 00:26:44;;;;;;;0.63;0.60;;;;;;;;;;5004778;28;58246;-76
2024/04/02 00:29:09;;;;;;;1.37;0.70;;;;;;;;;;4993850;28;58730;-77
2024/04/02 00:31:35;;;;;;;3.00;0.97;;;;;;;;;;5007175;28;58888;-76
2024/04/02 00:34:00;;;;;;;1.08;0.50;;;;;;;;;;5006657;28;58435;-77
2024/04/02 00:36:25;;;;;;;1.27;0.80;;;;;;;;;;5006108;28;58737;-77
2024/04/02 00:38:50;;;;;;;0.93;0.73;;;;;;;;;;5004847;28;58434;-76
2024/04/02 00:41:15;;;;;;;1.20;0.88;;;;;;;;;;4996440;28;60191;-77
2024/04/02 00:43:40;;;;;;;1.20;1.10;;;;;;;;;;4994591;28;58247;-77
2024/04/02 00:46:05;;;;;;;0.63;0.63;;;;;;;;;;4994673;28;58664;-77
2024/04/02 00:48:31;;;;;;;0.65;0.60;;;;;;;;;;4993835;28;59160;-77
2024/04/02 00:50:56;;;;;;;1.00;0.70;;;;;;;;;;4998850;28;59694;-77
2024/04/02 00:53:21;;;;;;;1.13;0.93;;;;;;;;;;5007209;28;58402;-77
2024/04/02 00:55:47;;;;;;;1.42;0.70;;;;;;;;;;5005417;28;59395;-77
2024/04/02 00:58:13;;;;;;;1.70;0.93;;;;;;;;;;4996690;28;58347;-77
2024/04/02 01:00:40;;;;;;;1.02;0.77;;;;;;;;;;5001865;28;59882;-77
2024/04/02 01:03:05;;;;;;;0.47;0.40;;;;;;;;;;5004123;28;59006;-77
2024/04/02 01:05:31;;;;;;;0.65;0.60;;;;;;;;;;5001222;28;58432;-77
2024/04/02 01:07:57;;;;;;;1.15;0.73;;;;;;;;;;4989416;28;59305;-77
2024/04/02 01:10:22;;;;;;;0.47;0.43;;;;;;;;;;5002919;28;59300;-77
2024/04/02 01:12:47;;;;;;;0.40;0.40;;;;;;;;;;5004260;28;58600;-77
2024/04/02 01:15:18;;;;;;;0.47;0.47;;;;;;;;;;5002726;28;58838;-77
2024/04/02 01:17:43;;;;;;;1.27;0.88;;;;;;;;;;5001388;28;58138;-77
2024/04/02 01:20:09;;;;;;;1.17;0.70;;;;;;;;;;4991382;28;60638;-77
2024/04/02 01:22:35;;;;;;;1.10;1.00;;;;;;;;;;4993671;28;58452;-77
2024/04/02 01:25:00;;;;;;;0.70;0.70;;;;;;;;;;5001606;28;58363;-77
2024/04/02 01:27:26;;;;;;;0.75;0.60;;;;;;;;;;5005226;28;58684;-77
2024/04/02 01:29:51;;;;;;;0.77;0.77;;;;;;;;;;4997817;28;58719;-77
2024/04/02 01:32:16;;;;;;;0.53;0.53;;;;;;;;;;4992605;28;57967;-77
2024/04/02 01:34:41;;;;;;;0.77;0.75;;;;;;;;;;4995744;28;59232;-77
2024/04/02 01:37:06;;;;;;;1.13;0.80;;;;;;;;;;5003115;28;57850;-77
2024/04/02 01:39:31;;;;;;;0.77;0.77;;;;;;;;;;4996477;28;59609;-77
2024/04/02 01:41:56;;;;;;;0.50;0.40;;;;;;;;;;4999707;28;58542;-77
2024/04/02 01:44:22;;;;;;;0.52;0.52;;;;;;;;;;5006043;28;58473;-77
2024/04/02 01:46:47;;;;;;;0.70;0.70;;;;;;;;;;4997127;28;59404;-77
2024/04/02 01:49:12;;;;;;;0.50;0.50;;;;;;;;;;5006481;28;58646;-77
2024/04/02 01:51:37;;;;;;;0.60;0.60;;;;;;;;;;4999743;28;58084;-77
2024/04/02 01:54:03;;;;;;;0.68;0.50;;;;;;;;;;4996442;28;59250;-77
2024/04/02 01:56:28;;;;;;;1.30;0.60;;;;;;;;;;4998284;28;58976;-77
2024/04/02 01:58:53;;;;;;;0.70;0.70;;;;;;;;;;5006964;28;60208;-77
2024/04/02 02:01:18;;;;;;;0.57;0.57;;;;;;;;;;4995717;28;58717;-77
2024/04/02 02:03:43;;;;;;;0.53;0.50;;;;;;;;;;5003858;28;58527;-77
2024/04/02 02:06:08;;;;;;;0.98;0.55;;;;;;;;;;5004196;28;60228;-77
2024/04/02 02:08:34;;;;;;;0.63;0.63;;;;;;;;;;4999368;28;58766;-77
2024/04/02 02:11:03;;;;;;;0.40;0.40;;;;;;;;;;5008663;28;58387;-77
2024/04/02 02:13:28;;;;;;;0.50;0.50;;;;;;;;;;5007116;28;59546;-77
2024/04/02 02:16:00;;;;;;;0.47;0.47;;;;;;;;;;5005239;28;58975;-77
2024/04/02 02:18:26;;;;;;;2.60;1.42;;;;;;;;;;5005462;28;58459;-77
2024/04/02 02:20:51;;;;;;;0.40;0.40;;;;;;;;;;5007909;28;58775;-77
2024/04/02 02:23:16;;;;;;;0.50;0.50;;;;;;;;;;5007494;28;58395;-77
2024/04/02 02:25:41;;;;;;;1.50;0.73;;;;;;;;;;5006341;28;59962;-77
2024/04/02 02:28:06;;;;;;;0.60;0.60;;;;;;;;;;5007275;28;59936;-77
2024/04/02 02:30:32;;;;;;;0.47;0.47;;;;;;;;;;5004073;28;59458;-77
2024/04/02 02:32:57;;;;;;;0.60;0.60;;;;;;;;;;4996824;28;60194;-78
2024/04/02 02:35:22;;;;;;;0.60;0.60;;;;;;;;;;5005625;28;59665;-77
2024/04/02 02:37:47;;;;;;;0.50;0.50;;;;;;;;;;5008675;28;58433;-78
2024/04/02 02:40:12;;;;;;;0.63;0.60;;;;;;;;;;5006598;28;58687;-77
2024/04/02 02:42:37;;;;;;;1.43;0.40;;;;;;;;;;5009602;28;58397;-77
2024/04/02 02:45:03;;;;;;;0.70;0.50;;;;;;;;;;5007439;28;59388;-77
2024/04/02 02:47:28;;;;;;;1.85;0.70;;;;;;;;;;5006164;28;59075;-78
2024/04/02 02:49:53;;;;;;;0.97;0.50;;;;;;;;;;5008283;28;58351;-78
2024/04/02 02:52:18;;;;;;;0.97;0.87;;;;;;;;;;5005043;28;58978;-77
2024/04/02 02:54:43;;;;;;;1.27;0.60;;;;;;;;;;5007791;28;58813;-77
2024/04/02 02:57:09;;;;;;;2.55;0.30;;;;;;;;;;5007446;28;58347;-77
2024/04/02 02:59:34;;;;;;;0.73;0.73;;;;;;;;;;5006834;28;59295;-76
2024/04/02 03:01:59;;;;;;;0.50;0.50;;;;;;;;;;5007125;28;59027;-77
2024/04/02 03:04:24;;;;;;;0.80;0.50;;;;;;;;;;4997749;28;58256;-77
2024/04/02 03:06:49;;;;;;;0.63;0.55;;;;;;;;;;4996012;28;58473;-77
2024/04/02 03:09:15;;;;;;;0.70;0.70;;;;;;;;;;4994436;28;58454;-77
2024/04/02 03:11:40;;;;;;;0.73;0.73;;;;;;;;;;4998704;28;59439;-77
2024/04/02 03:14:05;;;;;;;0.50;0.50;;;;;;;;;;5007003;28;59675;-77
2024/04/02 03:16:30;;;;;;;0.60;0.60;;;;;;;;;;4996769;28;58496;-77
2024/04/02 03:18:56;;;;;;;0.47;0.47;;;;;;;;;;5005292;28;59092;-77
2024/04/02 03:21:21;;;;;;;0.68;0.68;;;;;;;;;;5008644;28;59383;-77
2024/04/02 03:23:47;;;;;;;0.60;0.60;;;;;;;;;;5008849;28;58406;-77
2024/04/02 03:26:13;;;;;;;0.60;0.60;;;;;;;;;;5006585;28;58897;-77
2024/04/02 03:28:39;;;;;;;0.82;0.68;;;;;;;;;;5008164;28;57794;-76
2024/04/02 03:31:04;;;;;;;0.68;0.68;;;;;;;;;;5005997;28;59623;-77
2024/04/02 03:33:30;;;;;;;0.60;0.60;;;;;;;;;;5009901;28;59023;-77
2024/04/02 03:36:01;;;;;;;0.50;0.50;;;;;;;;;;5005829;28;58319;-77
2024/04/02 03:38:26;;;;;;;0.60;0.60;;;;;;;;;;5010919;28;60234;-77
2024/04/02 03:40:51;;;;;;;0.85;0.82;;;;;;;;;;5007673;28;58394;-77
2024/04/02 03:43:16;;;;;;;0.82;0.50;;;;;;;;;;5008773;28;58540;-77
2024/04/02 03:45:41;;;;;;;0.82;0.82;;;;;;;;;;5006826;28;60868;-77
2024/04/02 03:48:07;;;;;;;0.50;0.50;;;;;;;;;;5006364;28;58409;-77
2024/04/02 03:50:34;;;;;;;0.60;0.60;;;;;;;;;;5006522;28;59688;-77
2024/04/02 03:52:59;;;;;;;0.75;0.75;;;;;;;;;;5008709;28;58874;-77
2024/04/02 03:55:24;;;;;;;0.77;0.57;;;;;;;;;;4997509;28;58568;-77
2024/04/02 03:57:49;;;;;;;0.60;0.60;;;;;;;;;;5004456;28;59822;-77
2024/04/02 04:00:14;;;;;;;2.40;0.70;;;;;;;;;;5008193;28;58404;-77
2024/04/02 04:02:40;;;;;;;0.40;0.40;;;;;;;;;;5006428;28;59229;-77
2024/04/02 04:05:05;;;;;;;0.70;0.70;;;;;;;;;;5021007;28;61503;-77
2024/04/02 04:07:30;;;;;;;0.67;0.60;;;;;;;;;;5008252;28;58512;-77
2024/04/02 04:09:55;;;;;;;0.50;0.50;;;;;;;;;;5007314;28;59809;-77
2024/04/02 04:12:20;;;;;;;3.20;0.80;;;;;;;;;;5006921;28;58769;-77
2024/04/02 04:14:49;;;;;;;0.70;0.70;;;;;;;;;;5002543;28;58400;-76
2024/04/02 04:17:14;;;;;;;0.45;0.45;;;;;;;;;;4987816;28;59549;-76
2024/04/02 04:19:40;;;;;;;0.60;0.60;;;;;;;;;;5005770;28;58951;-76
2024/04/02 04:22:05;;;;;;;0.67;0.60;;;;;;;;;;4998321;28;58431;-76
2024/04/02 04:24:30;;;;;;;0.82;0.82;;;;;;;;;;4996053;28;59343;-76
2024/04/02 04:26:55;;;;;;;0.63;0.40;;;;;;;;;;4998361;28;58905;-76
2024/04/02 04:29:20;;;;;;;1.80;0.57;;;;;;;;;;5007713;28;59965;-76
2024/04/02 04:31:45;;;;;;;0.70;0.70;;;;;;;;;;5005538;28;58687;-76
2024/04/02 04:34:12;;;;;;;1.07;0.73;;;;;;;;;;5007348;28;58476;-77
2024/04/02 04:36:37;;;;;;;3.00;0.88;;;;;;;;;;5008394;28;59591;-77
2024/04/02 04:39:05;;;;;;;3.08;1.50;;;;;;;;;;5004936;28;58553;-76
2024/04/02 04:41:30;;;;;;;1.17;0.90;;;;;;;;;;5005988;28;58451;-76
2024/04/02 04:43:55;;;;;;;4.87;1.10;;;;;;;;;;5006033;28;59362;-76
2024/04/02 04:46:20;;;;;;;2.30;1.40;;;;;;;;;;5004502;28;58586;-77
2024/04/02 04:48:45;;;;;;;3.60;1.53;;;;;;;;;;5004445;28;58427;-76
2024/04/02 04:51:10;;;;;;;4.90;1.65;;;;;;;;;;5003360;28;59773;-76
2024/04/02 04:53:36;;;;;;;4.37;1.80;;;;;;;;;;5005151;28;58303;-76
2024/04/02 04:56:02;;;;;;;7.03;1.77;;;;;;;;;;5006308;28;59519;-77
2024/04/02 04:58:27;;;;;;;4.00;1.85;;;;;;;;;;5007865;28;58370;-77
2024/04/02 05:00:52;;;;;;;2.83;1.77;;;;;;;;;;5006386;28;58280;-76
2024/04/02 05:03:18;;;;;;;3.80;1.60;;;;;;;;;;5005670;28;59230;-76
2024/04/02 05:05:43;;;;;;;3.77;1.37;;;;;;;;;;5004869;28;58774;-76
2024/04/02 05:08:17;;;;;;;1.98;1.73;;;;;;;;;;5009696;28;58443;-76
2024/04/02 05:10:42;;;;;;;2.28;2.08;;;;;;;;;;5006668;28;60153;-76
2024/04/02 05:13:08;;;;;;;4.17;1.63;;;;;;;;;;5022093;28;58392;-78
2024/04/02 05:15:33;;;;;;;3.07;1.43;;;;;;;;;;5000444;28;58589;-77
2024/04/02 05:17:58;;;;;;;4.50;2.33;;;;;;;;;;4997624;28;58371;-78
2024/04/02 05:20:23;;;;;;;2.17;1.57;;;;;;;;;;4998749;28;58674;-77
2024/04/02 05:22:48;;;;;;;3.13;1.43;;;;;;;;;;4999680;28;58435;-77
2024/04/02 05:25:13;;;;;;;2.67;1.23;;;;;;;;;;5007727;28;59942;-77
2024/04/02 05:27:39;;;;;;;3.33;1.43;;;;;;;;;;5003416;28;58418;-77
2024/04/02 05:30:04;;;;;;;3.97;1.27;;;;;;;;;;5001340;28;60368;-77
2024/04/02 05:32:29;;;;;;;6.75;1.15;;;;;;;;;;5009151;28;58361;-77
2024/04/02 05:34:54;;;;;;;2.93;1.53;;;;;;;;;;5008650;28;59192;-77
2024/04/02 05:37:20;;;;;;;1.67;0.97;;;;;;;;;;5009361;28;59697;-77
2024/04/02 05:39:48;;;;;;;2.67;1.57;;;;;;;;;;5008482;28;58648;-77
2024/04/02 05:42:13;;;;;;;3.80;1.65;;;;;;;;;;5009261;28;59548;-77
2024/04/02 05:44:39;;;;;;;2.45;1.15;;;;;;;;;;5005284;28;58594;-77
2024/04/02 05:47:04;;;;;;;2.17;1.15;;;;;;;;;;4997483;28;58487;-77
2024/04/02 05:49:29;;;;;;;3.37;1.27;;;;;;;;;;4997220;28;59725;-77
2024/04/02 05:51:54;;;;;;;1.90;0.90;;;;;;;;;;5005658;28;58297;-77
2024/04/02 05:54:19;;;;;;;1.80;1.42;;;;;;;;;;5007524;28;59053;-77
2024/04/02 05:56:44;;;;;;;1.23;1.05;;;;;;;;;;5008439;28;58297;-77
2024/04/02 05:59:09;;;;;;;3.90;1.97;;;;;;;;;;5008890;28;58589;-77
2024/04/02 06:01:35;;;;;;;4.03;1.10;;;;;;;;;;5010558;28;59141;-77
2024/04/02 06:04:00;;;;;;;0.87;0.63;;;;;;;;;;5008807;28;58776;-77
2024/04/02 06:06:25;;;;;;;1.88;0.90;;;;;;;;;;5008786;28;58482;-78
2024/04/02 06:08:50;;;;;;;1.45;0.82;;;;;;;;;;5008113;28;59197;-77
2024/04/02 06:11:16;;;;;;;0.98;0.95;;;;;;;;;;5007917;28;58467;-77
2024/04/02 06:13:41;;;;;;;2.00;0.70;;;;;;;;;;5010864;28;58468;-77
2024/04/02 06:16:06;;;;;;;1.40;1.07;;;;;;;;;;5006278;28;58584;-77
2024/04/02 06:18:32;;;;;;;1.00;0.88;;;;;;;;;;5009795;28;58397;-77
2024/04/02 06:20:57;;;;;;;2.37;1.53;;;;;;;;;;5009504;28;59185;-78
2024/04/02 06:23:23;;;;;;;2.42;1.23;;;;;;;;;;5008967;28;59420;-77
2024/04/02 06:25:48;;;;;;;0.50;0.50;;;;;;;;;;5008903;28;58557;-77
2024/04/02 06:28:13;;;;;;;1.17;0.70;;;;;;;;;;5007594;28;59465;-77
2024/04/02 06:30:38;;;;;;;0.57;0.40;;;;;;;;;;4998597;28;59800;-77
2024/04/02 06:33:03;;;;;;;0.83;0.83;;;;;;;;;;5003153;28;58373;-77
2024/04/02 06:35:28;;;;;;;0.60;0.60;;;;;;;;;;5010569;28;59480;-77
2024/04/02 06:37:54;;;;;;;0.80;0.63;;;;;;;;;;5007772;28;58364;-77
2024/04/02 06:40:19;;;;;;;1.13;0.93;;;;;;;;;;5008328;28;59624;-77
2024/04/02 06:42:45;;;;;;;1.33;1.23;;;;;;;;;;5006068;28;57876;-77
2024/04/02 06:45:10;;;;;;;2.90;1.05;;;;;;;;;;5007078;28;58489;-77
2024/04/02 06:47:35;;;;;;;2.83;1.17;;;;;;;;;;5007426;28;60110;-77
2024/04/02 06:50:00;;;;;;;0.55;0.55;;;;;;;;;;5010957;28;59723;-77
2024/04/02 06:52:25;;;;;;;2.23;1.03;;;;;;;;;;5008229;28;58515;-77
2024/04/02 06:54:50;;;;;;;1.20;0.70;;;;;;;;;;5007865;28;59732;-77
2024/04/02 06:57:16;;;;;;;0.47;0.47;;;;;;;;;;5009572;28;58898;-77
2024/04/02 06:59:41;;;;;;;0.87;0.70;;;;;;;;;;5005862;28;59100;-77
2024/04/02 07:02:06;;;;;;;0.77;0.60;;;;;;;;;;4998880;28;58370;-77
2024/04/02 07:04:32;;;;;;;1.33;0.52;;;;;;;;;;5007789;28;58521;-77
2024/04/02 07:06:57;;;;;;;1.17;0.60;;;;;;;;;;4997934;28;59447;-77
2024/04/02 07:09:22;;;;;;;1.58;0.75;;;;;;;;;;4997822;28;58747;-77
2024/04/02 07:11:47;;;;;;;1.50;0.47;;;;;;;;;;4998205;28;58415;-77
2024/04/02 07:14:12;;;;;;;1.67;0.80;;;;;;;;;;4995913;28;60126;-76
2024/04/02 07:16:37;;;;;;;0.60;0.60;;;;;;;;;;4995761;28;59732;-77
2024/04/02 07:19:02;;;;;;;0.50;0.50;;;;;;;;;;5007123;28;58859;-77
2024/04/02 07:21:28;;;;;;;0.70;0.55;;;;;;;;;;5006921;28;59821;-76
2024/04/02 07:23:53;;;;;;;0.70;0.70;;;;;;;;;;5008664;28;58213;-77
2024/04/02 07:26:18;;;;;;;2.58;1.13;;;;;;;;;;5008401;28;58567;-77
2024/04/02 07:28:43;;;;;;;2.00;1.37;;;;;;;;;;5007447;28;58695;-76
2024/04/02 07:31:08;;;;;;;0.50;0.50;;;;;;;;;;5021391;28;58442;-77
2024/04/02 07:33:33;;;;;;;1.33;0.60;;;;;;;;;;5008461;28;59337;-77
2024/04/02 07:35:58;;;;;;;0.70;0.60;;;;;;;;;;5007583;28;58969;-77
2024/04/02 07:38:24;;;;;;;0.43;0.43;;;;;;;;;;5007887;28;58521;-77
2024/04/02 07:40:49;;;;;;;0.60;0.50;;;;;;;;;;5007367;28;58462;-77
2024/04/02 07:43:14;;;;;;;0.90;0.53;;;;;;;;;;5006325;28;58682;-78
2024/04/02 07:45:39;;;;;;;1.10;0.60;;;;;;;;;;5007422;28;59787;-77
2024/04/02 07:48:06;;;;;;;0.53;0.40;;;;;;;;;;5003891;28;58729;-77
2024/04/02 07:50:32;;;;;;;0.73;0.73;;;;;;;;;;4997120;28;58451;-77
2024/04/02 07:52:58;;;;;;;0.68;0.68;;;;;;;;;;5005319;28;59363;-78
2024/04/02 07:55:23;;;;;;;0.80;0.80;;;;;;;;;;5009385;28;59100;-77
2024/04/02 07:57:48;;;;;;;1.00;0.60;;;;;;;;;;5006913;28;58357;-77
2024/04/02 08:00:13;;;;;;;0.30;0.30;;;;;;;;;;5008228;28;60212;-77
2024/04/02 08:02:39;;;;;;;0.83;0.73;;;;;;;;;;5005930;28;58399;-77
2024/04/02 08:05:04;;;;;;;0.57;0.57;;;;;;;;;;4997441;28;60389;-77
2024/04/02 08:07:29;;;;;;;0.40;0.40;;;;;;;;;;5006649;28;58923;-77
2024/04/02 08:09:54;;;;;;;0.47;0.40;;;;;;;;;;5007091;28;58216;-77
2024/04/02 08:12:20;;;;;;;0.53;0.43;;;;;;;;;;5007127;28;59504;-78
2024/04/02 08:14:45;;;;;;;0.60;0.60;;;;;;;;;;5008516;28;59045;-77
2024/04/02 08:17:10;;;;;;;0.65;0.50;;;;;;;;;;5006448;28;58343;-77
2024/04/02 08:19:35;;;;;;;0.38;0.38;;;;;;;;;;5008963;28;60118;-77
2024/04/02 08:22:00;;;;;;;0.40;0.40;;;;;;;;;;5008707;28;58992;-77
2024/04/02 08:24:25;;;;;;;1.37;1.23;;;;;;;;;;5007275;28;59334;-77
2024/04/02 08:26:51;;;;;;;0.40;0.38;;;;;;;;;;5002102;28;58853;-77
2024/04/02 08:29:16;;;;;;;0.35;0.32;;;;;;;;;;4998969;28;58380;-77
2024/04/02 08:31:41;;;;;;;0.33;0.33;;;;;;;;;;4996391;28;59581;-77
2024/04/02 08:34:06;;;;;;;0.40;0.40;;;;;;;;;;4986819;28;58933;-77
2024/04/02 08:36:32;;;;;;;0.35;0.32;;;;;;;;;;4998343;28;58379;-77
2024/04/02 08:38:57;;;;;;;0.57;0.53;;;;;;;;;;5006573;28;59148;-77
2024/04/02 08:41:25;;;;;;;0.40;0.33;;;;;;;;;;5006322;28;58444;-77
2024/04/02 08:43:52;;;;;;;0.45;0.45;;;;;;;;;;5007481;28;58457;-77
2024/04/02 08:46:17;;;;;;;1.55;1.08;;;;;;;;;;5005446;28;58888;-77
2024/04/02 08:48:43;;;;;;;0.37;0.33;;;;;;;;;;5006604;28;58691;-77
2024/04/02 08:51:08;;;;;;;0.50;0.50;;;;;;;;;;5008364;28;58304;-77
2024/04/02 08:53:33;;;;;;;0.45;0.45;;;;;;;;;;5015933;28;59006;-77
2024/04/02 08:55:59;;;;;;;0.50;0.50;;;;;;;;;;5009956;28;58301;-77
2024/04/02 08:58:25;;;;;;;0.40;0.40;;;;;;;;;;5012891;28;60457;-77
2024/04/02 09:00:51;;;;;;;0.65;0.40;;;;;;;;;;5009705;28;58946;-78
2024/04/02 09:03:16;;;;;;;1.77;0.30;;;;;;;;;;5010721;28;58378;-78
2024/04/02 09:05:41;;;;;;;0.40;0.40;;;;;;;;;;5010973;28;59517;-77
2024/04/02 09:08:09;;;;;;;0.67;0.40;;;;;;;;;;5010425;28;58468;-77
2024/04/02 09:10:35;;;;;;;0.32;0.32;;;;;;;;;;5000224;28;60267;-77
2024/04/02 09:13:00;;;;;;;0.50;0.40;;;;;;;;;;4998224;28;59767;-77
2024/04/02 09:15:26;;;;;;;0.25;0.25;;;;;;;;;;4993211;28;58223;-77
2024/04/02 09:17:51;;;;;;;0.45;0.45;;;;;;;;;;4994924;28;59358;-77
2024/04/02 09:20:16;;;;;;;0.40;0.40;;;;;;;;;;5008579;28;58797;-77
2024/04/02 09:22:41;;;;;;;0.37;0.30;;;;;;;;;;5011552;28;58543;-77
2024/04/02 09:25:07;;;;;;;0.40;0.40;;;;;;;;;;5011145;28;59468;-77
2024/04/02 09:27:33;;;;;;;0.73;0.50;;;;;;;;;;5008855;28;59434;-77
2024/04/02 09:29:58;;;;;;;0.50;0.30;;;;;;;;;;5011617;28;58425;-78
2024/04/02 09:32:24;;;;;;;0.30;0.30;;;;;;;;;;5008472;28;58783;-78
2024/04/02 09:34:52;;;;;;;1.95;0.43;;;;;;;;;;4996972;28;57932;-77
2024/04/02 09:37:31;;;;;;;0.30;0.25;;;;;;;;;;4989069;28;59367;-77
2024/04/02 09:39:57;;;;;;;0.90;0.35;;;;;;;;;;5003461;28;58837;-78
2024/04/02 09:42:23;;;;;;;0.30;0.30;;;;;;;;;;5010306;28;58274;-77
2024/04/02 09:44:49;;;;;;;0.55;0.30;;;;;;;;;;5009529;28;59295;-77
2024/04/02 09:47:15;;;;;;;0.52;0.32;;;;;;;;;;5008949;28;60031;-77
2024/04/02 09:49:41;;;;;;;0.45;0.45;;;;;;;;;;5010092;28;59820;-77
2024/04/02 09:52:07;;;;;;;1.08;0.50;;;;;;;;;;5007940;28;58551;-77
2024/04/02 09:54:33;;;;;;;0.40;0.40;;;;;;;;;;5005742;28;58463;-77
2024/04/02 09:56:59;;;;;;;1.52;0.35;;;;;;;;;;5001020;28;60583;-78
2024/04/02 09:59:25;;;;;;;0.30;0.30;;;;;;;;;;5009497;27;58815;-77
2024/04/02 10:01:50;;;;;;;0.68;0.68;;;;;;;;;;5008228;28;58434;-77
2024/04/02 10:04:17;;;;;;;1.27;0.50;;;;;;;;;;5008246;28;59512;-77
2024/04/02 10:06:42;;;;;;;0.73;0.65;;;;;;;;;;5009113;28;59461;-77
2024/04/02 10:09:12;;;;;;;0.50;0.50;;;;;;;;;;5009786;28;58305;-77
2024/04/02 10:11:38;;;;;;;0.75;0.40;;;;;;;;;;5010268;28;59072;-77
2024/04/02 10:14:04;;;;;;;0.30;0.30;;;;;;;;;;5010175;28;58451;-77
2024/04/02 10:16:31;;;;;;;0.30;0.30;;;;;;;;;;5008687;28;59064;-77
2024/04/02 10:18:59;;;;;;;0.30;0.30;;;;;;;;;;5007378;28;58562;-77
2024/04/02 10:21:24;;;;;;;0.30;0.30;;;;;;;;;;5007276;28;58349;-77
2024/04/02 10:23:51;;;;;;;0.40;0.40;;;;;;;;;;5008205;28;59432;-77
2024/04/02 10:26:17;;;;;;;0.32;0.32;;;;;;;;;;5008403;28;58510;-77
2024/04/02 10:28:42;;;;;;;1.10;0.43;;;;;;;;;;5010460;28;58443;-78
2024/04/02 10:31:17;;;;;;;0.67;0.47;;;;;;;;;;5009561;28;58441;-78
2024/04/02 10:33:43;;;;;;;0.63;0.30;;;;;;;;;;5008284;28;58438;-77
2024/04/02 10:36:09;;;;;;;0.40;0.40;;;;;;;;;;5009648;28;59503;-77
2024/04/02 10:38:34;;;;;;;0.50;0.30;;;;;;;;;;5007079;28;58850;-77
2024/04/02 10:40:59;;;;;;;0.52;0.20;;;;;;;;;;5009245;28;58364;-77
2024/04/02 10:43:24;;;;;;;0.50;0.30;;;;;;;;;;5009979;28;60252;-77
2024/04/02 10:45:51;;;;;;;0.47;0.40;;;;;;;;;;5006557;28;59862;-77
2024/04/02 10:48:16;;;;;;;0.52;0.43;;;;;;;;;;5007806;28;58610;-77
2024/04/02 10:50:41;;;;;;;1.20;0.83;;;;;;;;;;5009936;28;59223;-77
2024/04/02 10:53:07;;;;;;;1.00;0.40;;;;;;;;;;5007882;28;58448;-77
2024/04/02 10:55:32;;;;;;;0.50;0.32;;;;;;;;;;5010559;28;59868;-77
2024/04/02 10:57:59;;;;;;;0.28;0.22;;;;;;;;;;5020734;28;59155;-77
2024/04/02 11:00:24;;;;;;;0.30;0.30;;;;;;;;;;5013348;28;58488;-77
2024/04/02 11:02:50;;;;;;;0.13;0.13;;;;;;;;;;5006699;28;58532;-77
2024/04/02 11:05:18;;;;;;;0.20;0.20;;;;;;;;;;5007149;28;58969;-77
2024/04/02 11:07:44;;;;;;;0.70;0.30;;;;;;;;;;5007950;28;57896;-77
2024/04/02 11:10:09;;;;;;;0.40;0.40;;;;;;;;;;5007680;28;59381;-77
2024/04/02 11:12:35;;;;;;;0.57;0.30;;;;;;;;;;5007412;28;59126;-77
2024/04/02 11:15:00;;;;;;;0.43;0.27;;;;;;;;;;5007624;28;58405;-77
2024/04/02 11:17:25;;;;;;;0.30;0.30;;;;;;;;;;5008038;28;58917;-77
2024/04/02 11:19:50;;;;;;;0.97;0.43;;;;;;;;;;5009052;28;58450;-76
2024/04/02 11:25:13;;;;;;;0.68;0.68;;;;;;;;;;4996820;28;58375;-77
2024/04/02 11:27:39;;;;;;;0.40;0.20;;;;;;;;;;4996083;28;58510;-77
2024/04/02 11:30:05;;;;;;;0.52;0.40;;;;;;;;;;4997572;28;59818;-77
2024/04/02 11:32:30;;;;;;;0.50;0.30;;;;;;;;;;5006196;28;60101;-77
2024/04/02 11:34:55;;;;;;;0.77;0.40;;;;;;;;;;4995272;28;58454;-76
2024/04/02 11:37:20;;;;;;;0.40;0.30;;;;;;;;;;5008169;28;59815;-76
2024/04/02 11:39:45;;;;;;;0.50;0.40;;;;;;;;;;5007332;28;58390;-77
2024/04/02 11:42:11;;;;;;;0.17;0.17;;;;;;;;;;5008510;28;58890;-76
2024/04/02 11:44:36;;;;;;;0.67;0.40;;;;;;;;;;5006965;28;60033;-77
2024/04/02 11:47:01;;;;;;;0.30;0.30;;;;;;;;;;5010070;28;58475;-76
2024/04/02 11:49:27;;;;;;;0.23;0.20;;;;;;;;;;5006701;28;58535;-77
2024/04/02 11:51:52;;;;;;;0.45;0.20;;;;;;;;;;5022415;28;59448;-77
2024/04/02 11:54:17;;;;;;;0.10;0.10;;;;;;;;;;5007896;28;58355;-76
2024/04/02 12:02:11;;;;;;;0.28;0.28;;;;;;;;;;4993085;28;58398;-77
2024/04/02 12:04:36;;;;;;;0.50;0.40;;;;;;;;;;5008951;28;58979;-77
2024/04/02 12:07:03;;;;;;;0.40;0.40;;;;;;;;;;4998652;28;58524;-77
2024/04/02 12:09:28;;;;;;;0.52;0.30;;;;;;;;;;4996338;28;60288;-77
2024/04/02 12:11:53;;;;;;;0.40;0.40;;;;;;;;;;4995656;28;60556;-76
2024/04/02 12:14:18;;;;;;;0.40;0.40;;;;;;;;;;4998344;28;58450;-77
2024/04/02 12:16:43;;;;;;;0.22;0.22;;;;;;;;;;5008060;28;58395;-77
2024/04/02 12:19:08;;;;;;;0.50;0.30;;;;;;;;;;4995215;28;60544;-77
2024/04/02 12:21:33;;;;;;;0.43;0.43;;;;;;;;;;5001296;28;59320;-76
2024/04/02 12:23:59;;;;;;;1.08;0.30;;;;;;;;;;5005770;28;58825;-77
2024/04/02 12:26:24;;;;;;;0.47;0.30;;;;;;;;;;5006500;28;58382;-77
2024/04/02 12:28:50;;;;;;;0.80;0.38;;;;;;;;;;5007096;28;59479;-77
2024/04/02 12:31:15;;;;;;;0.65;0.65;;;;;;;;;;5006278;28;59880;-77
2024/04/02 12:33:41;;;;;;;0.27;0.27;;;;;;;;;;5000924;28;58902;-77
2024/04/02 12:36:06;;;;;;;0.37;0.30;;;;;;;;;;4996509;28;58830;-78
2024/04/02 12:38:31;;;;;;;0.70;0.35;;;;;;;;;;5004954;28;59769;-77
2024/04/02 12:40:56;;;;;;;0.40;0.30;;;;;;;;;;4998559;28;58245;-77
2024/04/02 12:43:21;;;;;;;10.67;0.77;;;;;;;;;;5004249;28;58479;-77
2024/04/02 12:45:50;;;;;;;0.50;0.50;;;;;;;;;;5006432;28;58392;-77
2024/04/02 12:48:15;;;;;;;0.93;0.30;;;;;;;;;;4999494;28;58541;-77
2024/04/02 12:50:53;;;;;;;0.37;0.30;;;;;;;;;;4995443;28;58823;-77
2024/04/02 12:53:20;;;;;;;;;;;;;;;;;;5008106;28;58343;-78
2024/04/02 12:55:46;;;;;;;0.70;0.70;;;;;;;;;;5005858;28;59734;-77
2024/04/02 12:58:11;;;;;;;0.40;0.30;;;;;;;;;;5008272;28;58300;-77
2024/04/02 13:00:39;;;;;;;0.38;0.35;;;;;;;;;;5003148;28;60578;-77
2024/04/02 13:03:04;;;;;;;;;;;;;;;;;;5003047;28;59540;-78
2024/04/02 13:05:35;;;;;;;0.55;0.30;;;;;;;;;;5005063;28;58426;-78
2024/04/02 13:08:01;;;;;;;0.95;0.77;;;;;;;;;;5003113;28;58585;-78
2024/04/02 13:10:26;;;;;;;0.20;0.20;;;;;;;;;;5004959;28;58383;-78
2024/04/02 13:12:51;;;;;;;1.33;0.60;;;;;;;;;;5006096;28;58299;-78
2024/04/02 13:15:16;;;;;;;1.05;0.50;;;;;;;;;;5006768;28;58788;-78
2024/04/02 13:17:41;;;;;;;0.80;0.43;;;;;;;;;;5003888;28;58401;-78
2024/04/02 13:20:08;;;;;;;14.17;2.03;;;;;;;;;;5010078;28;58586;-78
2024/04/02 13:22:33;;;;;;;1.65;0.43;;;;;;;;;;5006864;28;58614;-78
2024/04/02 13:24:59;;;;;;;2.25;0.85;;;;;;;;;;5006585;28;58968;-79
2024/04/02 13:27:24;;;;;;;4.25;1.05;;;;;;;;;;5004935;28;58979;-78
2024/04/02 13:29:51;;;;;;;3.17;1.15;;;;;;;;;;5003302;28;58390;-78
2024/04/02 13:32:16;;;;;;;3.27;0.63;;;;;;;;;;5004632;28;58450;-77
2024/04/02 13:34:43;;;;;;;4.53;0.88;;;;;;;;;;4997429;28;59233;-78
2024/04/02 13:37:10;;;;;;;3.47;0.93;;;;;;;;;;5005074;28;59735;-77
2024/04/02 13:39:35;;;;;;;1.02;0.60;;;;;;;;;;5009297;28;58544;-78
2024/04/02 13:42:00;;;;;;;2.17;1.02;;;;;;;;;;5014923;28;61589;-77
2024/04/02 13:44:26;;;;;;;2.93;0.90;;;;;;;;;;5008922;28;58483;-77
2024/04/02 13:46:51;;;;;;;4.38;0.60;;;;;;;;;;5009071;28;58437;-77
2024/04/02 13:49:16;;;;;;;1.70;1.00;;;;;;;;;;5009549;28;58553;-78
2024/04/02 13:51:41;;;;;;;0.70;0.70;;;;;;;;;;5012037;28;58447;-78
2024/04/02 13:54:06;;;;;;;2.55;0.70;;;;;;;;;;5007116;28;59195;-78
2024/04/02 13:56:32;;;;;;;2.63;1.10;;;;;;;;;;4996653;28;58777;-76
2024/04/02 13:58:57;;;;;;;5.20;0.73;;;;;;;;;;4999190;28;58410;-75
2024/04/02 14:01:22;;;;;;;1.50;0.77;;;;;;;;;;5008504;28;59529;-78
2024/04/02 14:03:47;;;;;;;3.50;0.57;;;;;;;;;;4997013;28;58477;-78
2024/04/02 14:06:14;;;;;;;2.53;0.90;;;;;;;;;;4998058;28;58363;-78
2024/04/02 14:08:42;;;;;;;10.23;1.65;;;;;;;;;;5005189;28;58839;-78
2024/04/02 14:11:14;;;;;;;2.15;0.70;;;;;;;;;;4996645;28;58220;-78
2024/04/02 14:13:42;;;;;;;1.52;0.60;;;;;;;;;;5010213;28;58672;-79
2024/04/02 14:16:09;;;;;;;1.33;0.63;;;;;;;;;;5007698;28;58391;-78
2024/04/02 14:18:35;;;;;;;2.38;0.60;;;;;;;;;;5001538;28;58371;-78
2024/04/02 14:21:04;;;;;;;1.65;0.47;;;;;;;;;;4997869;28;58440;-78
2024/04/02 14:23:30;;;;;;;0.95;0.60;;;;;;;;;;4999558;28;58923;-78
2024/04/02 14:25:56;;;;;;;2.97;1.00;;;;;;;;;;5009976;28;57922;-79
2024/04/02 14:28:22;;;;;;;0.52;0.52;;;;;;;;;;4997569;28;59145;-78
2024/04/02 14:30:48;;;;;;;1.63;1.30;;;;;;;;;;5005391;28;58529;-78
2024/04/02 14:33:13;;;;;;;0.40;0.40;;;;;;;;;;5007559;28;59280;-78
2024/04/02 14:35:42;;;;;;;0.50;0.50;;;;;;;;;;5008073;28;58956;-78
2024/04/02 14:38:07;;;;;;;1.48;0.43;;;;;;;;;;5008123;28;58557;-78
2024/04/02 14:40:34;;;;;;;1.02;0.60;;;;;;;;;;5008473;28;59444;-78